Time;durP1;ratioP1;P1;durP2;ratioP2;P2;SDS_P1;SDS_P2;PMS_P1;PMS_P2;Temp;Humidity;BMP_temperature;BMP_pressure;BME280_temperature;BME280_humidity;BME280_pressure;Samples;Min_cycle;Max_cycle;Signal;HPM_P1;HPM_P2
2022/05/01 00:02:15;;;;;;;13.52;10.85;;;4.70;99.90;;;;;;5095270;28;20136;-57
2022/05/01 00:04:41;;;;;;;12.80;10.55;;;4.80;99.90;;;;;;5069306;28;20055;-57
2022/05/01 00:07:10;;;;;;;11.68;10.15;;;4.70;99.90;;;;;;5097135;28;20110;-56
2022/05/01 00:09:37;;;;;;;15.43;10.57;;;4.70;99.90;;;;;;5061455;28;20079;-57
2022/05/01 00:12:03;;;;;;;11.35;9.68;;;4.60;99.90;;;;;;5077806;28;20054;-58
2022/05/01 00:14:29;;;;;;;12.63;9.20;;;4.60;99.90;;;;;;5095059;28;20513;-57
2022/05/01 00:16:55;;;;;;;11.60;9.00;;;4.60;99.90;;;;;;5078251;28;20150;-57
2022/05/01 00:19:21;;;;;;;10.10;8.32;;;4.60;99.90;;;;;;5096127;28;20044;-57
2022/05/01 00:21:47;;;;;;;9.55;7.68;;;4.50;99.90;;;;;;5096192;28;20071;-57
2022/05/01 00:24:13;;;;;;;6.72;5.82;;;4.50;99.90;;;;;;5078464;28;20044;-57
2022/05/01 00:26:39;;;;;;;7.30;6.60;;;4.40;99.90;;;;;;5078126;28;20088;-57
2022/05/01 00:29:06;;;;;;;6.97;6.00;;;4.40;99.90;;;;;;5097342;28;20044;-57
2022/05/01 00:31:32;;;;;;;7.18;6.45;;;4.40;99.90;;;;;;5094443;28;20119;-57
2022/05/01 00:36:43;;;;;;;9.93;7.47;;;4.40;99.90;;;;;;5094988;28;20509;-57
2022/05/01 00:39:09;;;;;;;8.02;7.22;;;4.30;99.90;;;;;;5095661;28;20551;-56
2022/05/01 00:41:37;;;;;;;7.47;6.07;;;4.30;99.90;;;;;;5076439;28;20048;-57
2022/05/01 00:44:08;;;;;;;6.80;6.10;;;4.20;99.90;;;;;;5095018;28;20055;-57
2022/05/01 00:46:45;;;;;;;6.07;5.47;;;4.20;99.90;;;;;;5095148;28;20090;-57
2022/05/01 00:49:14;;;;;;;6.13;5.22;;;4.20;99.90;;;;;;5096450;28;20048;-56
2022/05/01 00:52:04;;;;;;;6.72;5.82;;;4.10;99.90;;;;;;5095531;28;20036;-56
2022/05/01 00:54:34;;;;;;;7.47;6.55;;;4.10;99.90;;;;;;5092227;28;20082;-57
2022/05/01 00:57:04;;;;;;;8.70;7.38;;;4.10;99.90;;;;;;5092448;28;20078;-57
2022/05/01 00:59:32;;;;;;;10.07;7.75;;;4.10;99.90;;;;;;5074159;28;20048;-58
2022/05/01 01:01:57;;;;;;;9.85;8.23;;;4.00;99.90;;;;;;5094334;28;20091;-57
2022/05/01 01:04:23;;;;;;;12.55;9.48;;;4.10;99.90;;;;;;5092541;28;20177;-58
2022/05/01 01:06:50;;;;;;;13.07;9.38;;;4.00;99.90;;;;;;5095565;28;20482;-54
2022/05/01 01:09:17;;;;;;;10.13;8.15;;;3.90;99.90;;;;;;5078553;28;20144;-58
2022/05/01 01:11:44;;;;;;;10.07;7.90;;;4.00;99.90;;;;;;5094799;28;20490;-56
2022/05/01 01:14:11;;;;;;;8.43;6.60;;;3.90;99.90;;;;;;5095804;28;20050;-56
2022/05/01 01:16:38;;;;;;;6.10;5.50;;;3.90;99.90;;;;;;5094809;28;20550;-57
2022/05/01 01:19:07;;;;;;;6.60;5.40;;;3.90;99.90;;;;;;5096331;28;20040;-57
2022/05/01 01:21:33;;;;;;;6.30;5.70;;;3.80;99.90;;;;;;5051635;28;20051;-57
2022/05/01 01:24:03;;;;;;;7.57;5.35;;;3.70;99.90;;;;;;5093789;28;20489;-58
2022/05/01 01:26:31;;;;;;;6.82;5.53;;;3.70;99.90;;;;;;5094415;28;20044;-57
2022/05/01 01:28:57;;;;;;;7.63;6.15;;;3.60;99.90;;;;;;5095960;28;20044;-57
2022/05/01 01:31:42;;;;;;;6.55;5.85;;;3.60;99.90;;;;;;5094987;28;20063;-58
2022/05/01 01:34:17;;;;;;;6.70;6.00;;;3.50;99.90;;;;;;5093721;28;20050;-57
2022/05/01 01:36:46;;;;;;;6.35;5.75;;;3.50;99.90;;;;;;5097290;28;20118;-57
2022/05/01 01:39:12;;;;;;;5.65;4.95;;;3.50;99.90;;;;;;5095511;28;20052;-56
2022/05/01 01:41:41;;;;;;;5.18;4.68;;;3.40;99.90;;;;;;5093358;28;20035;-57
2022/05/01 01:44:08;;;;;;;5.90;5.30;;;3.40;99.90;;;;;;5094218;28;20066;-58
2022/05/01 01:46:37;;;;;;;7.00;5.43;;;3.30;99.90;;;;;;5092809;28;20039;-58
2022/05/01 01:49:07;;;;;;;5.88;5.28;;;3.30;99.90;;;;;;5084204;28;20051;-58
2022/05/01 01:51:34;;;;;;;7.40;5.38;;;3.30;99.90;;;;;;5094160;28;20043;-58
2022/05/01 01:53:59;;;;;;;9.50;6.82;;;3.30;99.90;;;;;;5079367;28;20040;-57
2022/05/01 01:56:25;;;;;;;7.03;5.97;;;3.20;99.90;;;;;;5090498;28;20105;-57
2022/05/01 01:58:51;;;;;;;5.40;4.85;;;3.20;99.90;;;;;;5098145;28;20436;-57
2022/05/01 02:01:18;;;;;;;5.18;4.53;;;3.20;99.90;;;;;;5078408;28;20090;-57
2022/05/01 02:03:44;;;;;;;6.18;5.43;;;3.10;99.90;;;;;;5092291;28;20051;-58
2022/05/01 02:06:10;;;;;;;7.20;6.35;;;3.10;99.90;;;;;;5074488;28;20075;-58
2022/05/01 02:08:36;;;;;;;7.28;6.40;;;3.10;99.90;;;;;;5093668;28;20059;-58
2022/05/01 02:11:03;;;;;;;7.35;6.55;;;3.00;99.90;;;;;;5073277;28;20069;-57
2022/05/01 02:13:30;;;;;;;8.13;6.70;;;3.00;99.90;;;;;;5090853;28;20208;-56
2022/05/01 02:15:57;;;;;;;7.75;6.95;;;3.00;99.90;;;;;;5073823;28;20070;-57
2022/05/01 02:18:23;;;;;;;7.22;6.53;;;2.90;99.90;;;;;;5090800;28;20200;-59
2022/05/01 02:23:33;;;;;;;7.82;7.03;;;2.90;99.90;;;;;;5081825;28;20054;-58
2022/05/01 02:25:59;;;;;;;8.02;7.22;;;2.90;99.90;;;;;;5063015;28;20047;-57
2022/05/01 02:28:26;;;;;;;8.20;7.40;;;2.80;99.90;;;;;;5091253;28;20489;-58
2022/05/01 02:30:52;;;;;;;7.40;6.53;;;2.80;99.90;;;;;;5093934;28;20189;-57
2022/05/01 02:33:20;;;;;;;8.18;7.38;;;2.90;99.90;;;;;;5091918;28;20048;-58
2022/05/01 02:35:46;;;;;;;10.50;8.52;;;2.80;99.90;;;;;;5093091;28;20082;-58
2022/05/01 02:38:12;;;;;;;9.98;7.88;;;2.80;99.90;;;;;;5091228;28;20063;-59
2022/05/01 02:40:38;;;;;;;7.80;6.60;;;2.80;99.90;;;;;;5060611;28;20429;-59
2022/05/01 02:43:05;;;;;;;8.32;6.72;;;2.70;99.90;;;;;;5092174;28;20625;-57
2022/05/01 02:45:32;;;;;;;10.10;8.30;;;2.70;99.90;;;;;;5091053;28;20043;-57
2022/05/01 02:47:58;;;;;;;11.63;8.80;;;2.70;99.90;;;;;;5092428;28;20055;-57
2022/05/01 02:50:24;;;;;;;11.40;9.27;;;2.60;99.90;;;;;;5093557;28;20039;-59
2022/05/01 02:52:51;;;;;;;11.15;8.63;;;2.60;99.90;;;;;;5083673;28;20052;-58
2022/05/01 02:55:21;;;;;;;12.38;8.65;;;2.60;99.90;;;;;;5093733;28;20046;-58
2022/05/01 02:57:47;;;;;;;14.93;11.48;;;2.60;99.90;;;;;;5091780;28;20059;-56
2022/05/01 03:00:17;;;;;;;16.20;11.80;;;2.60;99.90;;;;;;5094866;28;20044;-58
2022/05/01 03:02:47;;;;;;;14.60;10.45;;;2.60;99.90;;;;;;5092937;28;20039;-59
2022/05/01 03:05:14;;;;;;;15.00;9.73;;;2.60;99.90;;;;;;5093281;28;20044;-58
2022/05/01 03:07:41;;;;;;;11.35;8.95;;;2.50;99.90;;;;;;5083658;28;20070;-57
2022/05/01 03:10:09;;;;;;;11.95;9.43;;;2.50;99.90;;;;;;5096119;28;20071;-58
2022/05/01 03:12:37;;;;;;;13.30;9.50;;;2.50;99.90;;;;;;5076340;28;20385;-59
2022/05/01 03:15:07;;;;;;;15.80;10.05;;;2.50;99.90;;;;;;5097362;28;20280;-57
2022/05/01 03:23:04;;;;;;;13.02;10.65;;;2.50;99.90;;;;;;5098020;28;20051;-58
2022/05/01 03:25:30;;;;;;;13.27;11.35;;;2.40;99.90;;;;;;5068742;28;20032;-58
2022/05/01 03:27:56;;;;;;;13.65;10.75;;;2.50;99.90;;;;;;5097304;28;20394;-58
2022/05/01 03:30:23;;;;;;;16.00;12.30;;;2.50;99.90;;;;;;5096533;28;20063;-57
2022/05/01 03:32:49;;;;;;;16.10;12.07;;;2.50;99.90;;;;;;5097049;28;20044;-55
2022/05/01 03:35:17;;;;;;;16.38;13.10;;;2.50;99.90;;;;;;5079587;28;20491;-56
2022/05/01 03:37:43;;;;;;;16.65;13.00;;;2.50;99.90;;;;;;5095920;28;20126;-57
2022/05/01 03:40:16;;;;;;;13.57;11.18;;;2.50;99.90;;;;;;5097810;28;20032;-55
2022/05/01 03:42:43;;;;;;;10.25;8.43;;;2.50;99.90;;;;;;5096791;28;20047;-57
2022/05/01 03:45:09;;;;;;;11.13;7.78;;;2.50;99.90;;;;;;5097131;28;20036;-56
2022/05/01 03:47:37;;;;;;;7.82;6.82;;;2.50;99.90;;;;;;5080542;28;20154;-54
2022/05/01 03:50:04;;;;;;;7.55;6.68;;;2.40;99.90;;;;;;5098519;28;20109;-56
2022/05/01 03:52:30;;;;;;;7.20;6.45;;;2.40;99.90;;;;;;5097296;28;20051;-57
2022/05/01 03:54:56;;;;;;;7.80;7.00;;;2.30;99.90;;;;;;5098033;28;20509;-57
2022/05/01 03:57:22;;;;;;;8.13;7.30;;;2.30;99.90;;;;;;5078997;28;20503;-57
2022/05/01 03:59:48;;;;;;;8.23;6.85;;;2.20;99.90;;;;;;5077157;28;20442;-56
2022/05/01 04:02:15;;;;;;;8.07;6.82;;;2.20;99.90;;;;;;5096157;28;20067;-56
2022/05/01 04:04:45;;;;;;;8.52;6.38;;;2.10;99.90;;;;;;5079823;28;20039;-58
2022/05/01 04:07:11;;;;;;;8.25;7.40;;;2.10;99.90;;;;;;5078230;28;20047;-56
2022/05/01 04:09:37;;;;;;;11.32;9.50;;;2.10;99.90;;;;;;5098821;28;20051;-56
2022/05/01 04:12:07;;;;;;;13.32;10.45;;;2.10;99.90;;;;;;5082273;28;20556;-54
2022/05/01 04:14:34;;;;;;;12.82;11.38;;;2.10;99.90;;;;;;5088260;28;20127;-57
2022/05/01 04:17:00;;;;;;;14.90;11.23;;;2.10;99.90;;;;;;5094305;28;20111;-57
2022/05/01 04:19:28;;;;;;;13.38;10.02;;;2.10;99.90;;;;;;5093029;28;20048;-56
2022/05/01 04:21:55;;;;;;;11.50;9.48;;;2.10;99.90;;;;;;5094737;28;20566;-55
2022/05/01 04:24:22;;;;;;;9.82;8.65;;;2.10;99.90;;;;;;5076384;28;20134;-57
2022/05/01 04:26:47;;;;;;;9.80;8.38;;;2.10;99.90;;;;;;5068233;28;20040;-58
2022/05/01 04:31:58;;;;;;;8.65;7.85;;;2.00;99.90;;;;;;5096072;28;20135;-56
2022/05/01 04:34:24;;;;;;;9.20;8.23;;;1.90;99.90;;;;;;5063092;28;20046;-56
2022/05/01 04:36:50;;;;;;;10.30;8.77;;;1.90;99.90;;;;;;5097488;28;20039;-56
2022/05/01 04:39:17;;;;;;;9.55;8.07;;;1.80;99.90;;;;;;5097801;28;20055;-57
2022/05/01 04:41:43;;;;;;;8.48;7.45;;;1.80;99.90;;;;;;5094537;28;20055;-56
2022/05/01 04:44:10;;;;;;;8.68;7.78;;;1.70;99.90;;;;;;5075266;28;20517;-57
2022/05/01 04:46:36;;;;;;;8.13;7.30;;;1.70;99.90;;;;;;5091914;28;20079;-56
2022/05/01 04:49:03;;;;;;;8.63;7.72;;;1.70;99.90;;;;;;5092551;28;20055;-58
2022/05/01 04:51:29;;;;;;;8.70;7.75;;;1.70;99.90;;;;;;5073846;28;20044;-57
2022/05/01 04:53:55;;;;;;;8.05;7.22;;;1.70;99.90;;;;;;5088844;28;20115;-57
2022/05/01 04:59:07;;;;;;;9.38;8.35;;;1.80;99.90;;;;;;5095751;28;20121;-57
2022/05/01 05:01:36;;;;;;;8.63;7.63;;;1.80;99.90;;;;;;5078197;28;20075;-55
2022/05/01 05:04:03;;;;;;;8.70;7.75;;;1.80;99.90;;;;;;5094476;28;20090;-56
2022/05/01 05:06:30;;;;;;;9.52;8.35;;;1.80;99.90;;;;;;5096186;28;20059;-57
2022/05/01 05:11:40;;;;;;;9.68;8.68;;;1.90;99.90;;;;;;5093393;28;20088;-57
2022/05/01 05:14:06;;;;;;;11.73;9.30;;;1.90;99.90;;;;;;5094593;28;20047;-55
2022/05/01 05:16:32;;;;;;;10.88;9.18;;;2.00;99.90;;;;;;5076144;28;20128;-58
2022/05/01 05:18:58;;;;;;;9.93;8.45;;;2.00;99.90;;;;;;5094713;28;20051;-58
2022/05/01 05:21:24;;;;;;;10.07;8.18;;;2.10;99.90;;;;;;5095309;28;20059;-57
2022/05/01 05:23:50;;;;;;;9.65;8.60;;;2.20;99.90;;;;;;5096307;28;20048;-57
2022/05/01 05:26:16;;;;;;;9.05;8.15;;;2.10;99.90;;;;;;5074641;28;20048;-57
2022/05/01 05:28:42;;;;;;;8.35;7.22;;;2.20;99.90;;;;;;5096370;28;20059;-57
2022/05/01 05:31:10;;;;;;;9.02;7.68;;;2.30;99.90;;;;;;5093519;28;20446;-58
2022/05/01 05:33:35;;;;;;;7.18;6.55;;;2.30;99.90;;;;;;5076885;28;20054;-56
2022/05/01 05:36:02;;;;;;;7.90;7.10;;;2.40;99.90;;;;;;5063308;28;20051;-56
2022/05/01 05:38:27;;;;;;;6.60;6.00;;;2.40;99.90;;;;;;5094901;28;20054;-56
2022/05/01 05:40:54;;;;;;;4.90;4.50;;;2.50;99.90;;;;;;5096461;28;20508;-55
2022/05/01 05:43:20;;;;;;;6.50;5.63;;;2.60;99.90;;;;;;5077838;28;20068;-57
2022/05/01 05:45:46;;;;;;;6.70;6.10;;;2.60;99.90;;;;;;5080546;28;20588;-58
2022/05/01 05:48:11;;;;;;;7.40;6.70;;;2.70;99.90;;;;;;5094858;28;20501;-57
2022/05/01 05:50:37;;;;;;;7.78;7.07;;;2.70;99.90;;;;;;5079167;28;20035;-57
2022/05/01 05:53:04;;;;;;;7.32;6.72;;;2.80;99.90;;;;;;5096036;28;20044;-57
2022/05/01 05:55:33;;;;;;;7.93;7.18;;;2.90;99.90;;;;;;5078030;28;20040;-57
2022/05/01 05:58:01;;;;;;;9.10;8.20;;;2.90;99.90;;;;;;5094844;28;20077;-57
2022/05/01 06:00:27;;;;;;;10.15;8.60;;;3.00;99.90;;;;;;5093757;28;20040;-58
2022/05/01 06:02:53;;;;;;;10.73;8.88;;;3.10;99.90;;;;;;5093037;28;20071;-58
2022/05/01 06:05:19;;;;;;;11.50;9.57;;;3.20;99.90;;;;;;5094209;28;20071;-57
2022/05/01 06:07:45;;;;;;;13.90;11.60;;;3.30;99.90;;;;;;5094701;28;20453;-56
2022/05/01 06:10:11;;;;;;;15.10;12.18;;;3.30;99.90;;;;;;5095543;28;20043;-58
2022/05/01 06:12:44;;;;;;;14.63;12.50;;;3.50;99.90;;;;;;5074718;28;20048;-57
2022/05/01 06:15:10;;;;;;;15.77;12.55;;;3.60;99.90;;;;;;5095725;28;20047;-57
2022/05/01 06:17:37;;;;;;;17.85;13.85;;;3.70;99.90;;;;;;5094625;28;20044;-57
2022/05/01 06:20:04;;;;;;;21.63;16.00;;;3.80;99.90;;;;;;5094943;28;20039;-57
2022/05/01 06:22:30;;;;;;;22.73;16.40;;;4.00;99.90;;;;;;5094048;28;20048;-57
2022/05/01 06:24:56;;;;;;;22.73;15.10;;;4.10;99.90;;;;;;5074556;28;20097;-57
2022/05/01 06:27:22;;;;;;;23.98;17.90;;;4.20;99.90;;;;;;5092345;28;20051;-56
2022/05/01 06:29:48;;;;;;;26.20;18.70;;;4.40;99.90;;;;;;5093391;28;20446;-56
2022/05/01 06:32:17;;;;;;;24.77;17.33;;;4.50;99.90;;;;;;5075088;28;20137;-57
2022/05/01 06:34:45;;;;;;;26.15;18.80;;;4.60;99.90;;;;;;5093616;28;20112;-59
2022/05/01 06:37:12;;;;;;;21.73;15.95;;;4.80;99.90;;;;;;5093334;28;20043;-57
2022/05/01 06:39:38;;;;;;;25.48;18.65;;;5.00;99.90;;;;;;5075861;28;20436;-57
2022/05/01 06:42:05;;;;;;;23.63;17.30;;;5.20;99.90;;;;;;5092581;28;20058;-56
2022/05/01 06:44:31;;;;;;;23.67;18.10;;;5.30;99.90;;;;;;5091024;28;20746;-56
2022/05/01 06:46:58;;;;;;;21.60;16.17;;;5.50;99.90;;;;;;5088412;28;20155;-59
2022/05/01 06:49:24;;;;;;;22.10;16.92;;;5.70;99.90;;;;;;5093096;28;20044;-59
2022/05/01 06:51:50;;;;;;;24.25;16.92;;;5.90;99.90;;;;;;5072386;28;20241;-57
2022/05/01 06:54:16;;;;;;;20.73;15.88;;;6.10;99.90;;;;;;5092571;28;20036;-57
2022/05/01 06:56:44;;;;;;;20.85;14.73;;;6.30;99.90;;;;;;5072766;28;20071;-58
2022/05/01 06:59:10;;;;;;;21.10;14.77;;;6.50;99.90;;;;;;5080898;28;20047;-57
2022/05/01 07:01:37;;;;;;;21.95;16.38;;;6.70;99.90;;;;;;5094982;28;20589;-57
2022/05/01 07:04:03;;;;;;;24.33;15.60;;;6.90;99.90;;;;;;5092347;28;20043;-56
2022/05/01 07:06:29;;;;;;;22.35;14.25;;;7.00;99.90;;;;;;5092982;28;20047;-55
2022/05/01 07:08:55;;;;;;;18.73;14.70;;;7.20;99.90;;;;;;5077972;28;20112;-57
2022/05/01 07:11:21;;;;;;;19.20;14.10;;;7.40;99.90;;;;;;5093164;28;20044;-57
2022/05/01 07:13:47;;;;;;;19.13;14.50;;;7.50;99.90;;;;;;5093920;28;20055;-55
2022/05/01 07:16:13;;;;;;;17.45;13.30;;;7.70;99.90;;;;;;5092781;28;20048;-58
2022/05/01 07:18:39;;;;;;;15.98;12.90;;;7.90;99.90;;;;;;5094732;28;20119;-56
2022/05/01 07:21:05;;;;;;;19.00;13.40;;;8.00;99.90;;;;;;5093893;28;20097;-56
2022/05/01 07:23:31;;;;;;;17.13;13.00;;;8.20;99.90;;;;;;5094308;28;20124;-57
2022/05/01 07:25:57;;;;;;;18.15;13.07;;;8.30;99.90;;;;;;5092772;28;20051;-57
2022/05/01 07:28:24;;;;;;;15.07;11.40;;;8.50;99.90;;;;;;5060297;28;20043;-57
2022/05/01 07:30:49;;;;;;;12.05;10.52;;;8.70;99.90;;;;;;5091655;28;20420;-57
2022/05/01 07:33:15;;;;;;;15.27;10.35;;;8.80;99.90;;;;;;5078290;28;20148;-58
2022/05/01 07:35:41;;;;;;;12.10;9.80;;;9.00;99.90;;;;;;5090162;28;20044;-58
2022/05/01 07:38:07;;;;;;;10.65;8.18;;;9.10;99.90;;;;;;5082731;28;20044;-59
2022/05/01 07:40:33;;;;;;;15.02;10.00;;;9.30;99.90;;;;;;5076401;28;20044;-57
2022/05/01 07:42:59;;;;;;;12.23;9.25;;;9.40;99.90;;;;;;5089998;28;20039;-56
2022/05/01 07:45:25;;;;;;;12.57;8.50;;;9.50;99.90;;;;;;5093809;28;20044;-56
2022/05/01 07:47:51;;;;;;;9.30;6.95;;;9.60;99.90;;;;;;5092399;28;20131;-58
2022/05/01 07:50:18;;;;;;;11.02;7.43;;;9.70;99.90;;;;;;5090353;28;20397;-57
2022/05/01 07:52:44;;;;;;;11.32;8.57;;;9.80;99.90;;;;;;5075246;28;20032;-58
2022/05/01 07:55:10;;;;;;;10.30;8.32;;;10.00;99.90;;;;;;5096671;28;20034;-58
2022/05/01 07:57:36;;;;;;;14.75;9.90;;;10.10;99.90;;;;;;5078653;28;20044;-58
2022/05/01 08:00:04;;;;;;;8.93;7.38;;;10.20;99.90;;;;;;5080210;28;20053;-57
2022/05/01 08:02:35;;;;;;;10.13;6.50;;;10.50;99.90;;;;;;5098357;28;20540;-58
2022/05/01 08:05:01;;;;;;;9.10;6.15;;;10.70;99.90;;;;;;5082592;28;20079;-57
2022/05/01 08:07:30;;;;;;;7.05;5.82;;;10.90;99.90;;;;;;5036564;28;20048;-57
2022/05/01 08:09:56;;;;;;;8.18;6.35;;;11.10;99.90;;;;;;5095353;28;20134;-57
2022/05/01 08:12:22;;;;;;;9.38;6.50;;;11.20;99.90;;;;;;5097230;28;20564;-57
2022/05/01 08:14:48;;;;;;;7.78;6.28;;;11.30;99.90;;;;;;5079286;28;20122;-59
2022/05/01 08:17:14;;;;;;;9.07;6.68;;;11.40;99.90;;;;;;5079105;28;20044;-57
2022/05/01 08:22:25;;;;;;;9.07;6.20;;;11.40;99.90;;;;;;5097302;28;20050;-57
2022/05/01 08:24:54;;;;;;;8.25;5.65;;;11.50;99.90;;;;;;5097308;28;20173;-59
2022/05/01 08:27:20;;;;;;;8.30;6.32;;;11.50;99.90;;;;;;5076112;28;20119;-58
2022/05/01 08:29:46;;;;;;;9.35;6.50;;;11.50;99.90;;;;;;5097465;28;20547;-58
2022/05/01 08:32:15;;;;;;;8.50;6.07;;;11.60;99.90;;;;;;5061999;28;20514;-61
2022/05/01 08:34:42;;;;;;;7.93;6.32;;;11.60;99.90;;;;;;5097419;28;20048;-59
2022/05/01 08:37:08;;;;;;;8.93;7.22;;;11.60;99.90;;;;;;5096770;27;20154;-57
2022/05/01 08:39:34;;;;;;;7.55;5.95;;;11.60;99.90;;;;;;5094324;28;20043;-56
2022/05/01 08:42:02;;;;;;;8.70;6.55;;;11.60;99.90;;;;;;5094587;28;20067;-57
2022/05/01 08:44:36;;;;;;;12.40;6.68;;;11.70;99.90;;;;;;5095783;28;20044;-58
2022/05/01 08:47:17;;;;;;;9.65;6.43;;;11.80;99.90;;;;;;5079117;28;20047;-56
2022/05/01 08:49:45;;;;;;;10.90;6.40;;;11.90;99.90;;;;;;5096677;28;20126;-57
2022/05/01 08:52:13;;;;;;;7.70;6.10;;;12.00;99.90;;;;;;5078892;28;20539;-57
2022/05/01 08:54:40;;;;;;;8.60;5.90;;;12.20;99.90;;;;;;5096447;28;20535;-57
2022/05/01 08:57:06;;;;;;;8.68;6.03;;;12.40;99.90;;;;;;5094677;28;20040;-56
2022/05/01 08:59:33;;;;;;;8.18;5.97;;;12.50;99.90;;;;;;5085181;28;20082;-57
2022/05/01 09:02:00;;;;;;;6.55;5.30;;;12.70;99.90;;;;;;5063407;28;20056;-57
2022/05/01 09:04:26;;;;;;;6.90;5.40;;;13.00;99.90;;;;;;5078401;28;20058;-57
2022/05/01 09:06:53;;;;;;;7.82;5.22;;;13.10;99.90;;;;;;5093735;28;20513;-57
2022/05/01 09:09:21;;;;;;;9.60;5.63;;;13.20;99.90;;;;;;5074357;28;20112;-57
2022/05/01 09:14:37;;;;;;;11.02;5.00;;;13.50;99.10;;;;;;5093974;28;20077;-57
2022/05/01 09:17:20;;;;;;;8.23;4.40;;;13.60;98.10;;;;;;5092947;28;20124;-58
2022/05/01 09:19:49;;;;;;;7.28;4.55;;;13.70;97.40;;;;;;5093667;28;20150;-56
2022/05/01 09:22:19;;;;;;;8.38;4.63;;;13.70;96.30;;;;;;5093054;28;20431;-58
2022/05/01 09:24:45;;;;;;;5.82;4.75;;;13.70;95.60;;;;;;5095806;28;20036;-57
2022/05/01 09:27:32;;;;;;;7.03;5.30;;;13.80;95.30;;;;;;5094505;28;20089;-57
2022/05/01 09:30:16;;;;;;;6.32;4.78;;;13.80;94.50;;;;;;5078315;28;20071;-58
2022/05/01 09:32:43;;;;;;;6.03;4.45;;;13.90;94.40;;;;;;5096043;28;20079;-58
2022/05/01 09:35:27;;;;;;;6.18;4.47;;;13.90;93.80;;;;;;5085052;28;20032;-58
2022/05/01 09:38:10;;;;;;;5.95;4.00;;;13.90;93.80;;;;;;5095161;28;20077;-57
2022/05/01 09:40:36;;;;;;;5.43;3.92;;;14.00;92.70;;;;;;5067472;28;20039;-58
2022/05/01 09:43:02;;;;;;;5.72;4.18;;;14.10;92.80;;;;;;5094100;28;20055;-57
2022/05/01 09:45:32;;;;;;;4.97;4.10;;;14.20;92.80;;;;;;5095554;28;20027;-60
2022/05/01 09:47:58;;;;;;;6.40;4.68;;;14.30;92.40;;;;;;5096143;28;20044;-57
2022/05/01 09:50:43;;;;;;;7.20;4.35;;;14.40;91.60;;;;;;5094443;28;20451;-58
2022/05/01 09:53:09;;;;;;;5.55;3.85;;;14.50;90.40;;;;;;5094202;28;20074;-58
2022/05/01 09:55:36;;;;;;;5.03;3.95;;;14.60;91.50;;;;;;5095039;28;20117;-57
2022/05/01 09:58:04;;;;;;;7.72;4.25;;;14.70;91.00;;;;;;5094495;28;20154;-58
2022/05/01 10:00:44;;;;;;;6.25;4.05;;;14.70;90.90;;;;;;5096546;28;20588;-57
2022/05/01 10:03:33;;;;;;;4.30;3.90;;;14.80;90.90;;;;;;5092252;28;20036;-58
2022/05/01 10:06:00;;;;;;;5.57;4.15;;;14.90;90.70;;;;;;5074836;28;20046;-57
2022/05/01 10:08:26;;;;;;;6.80;4.30;;;14.90;89.50;;;;;;5091286;28;20052;-57
2022/05/01 10:10:58;;;;;;;5.53;4.10;;;14.90;88.30;;;;;;5072371;28;20075;-58
2022/05/01 10:13:25;;;;;;;8.20;4.40;;;15.00;87.20;;;;;;5093176;28;20473;-58
2022/05/01 10:15:52;;;;;;;5.82;4.10;;;15.00;87.10;;;;;;5091497;28;20285;-57
2022/05/01 10:18:20;;;;;;;6.95;4.22;;;15.10;87.10;;;;;;5091607;28;20044;-58
2022/05/01 10:20:48;;;;;;;5.05;4.20;;;15.20;87.20;;;;;;5094133;28;20086;-57
2022/05/01 10:23:14;;;;;;;5.03;4.47;;;15.40;87.20;;;;;;5094997;28;20046;-58
2022/05/01 10:25:52;;;;;;;6.13;4.18;;;15.50;85.60;;;;;;5094136;28;20036;-57
2022/05/01 10:28:42;;;;;;;5.85;4.28;;;15.60;86.00;;;;;;5094513;28;20047;-57
2022/05/01 10:34:25;;;;;;;6.13;3.90;;;15.90;86.30;;;;;;5074064;28;20045;-57
2022/05/01 10:37:04;;;;;;;7.10;4.47;;;16.10;85.00;;;;;;5075318;28;20093;-57
2022/05/01 10:39:36;;;;;;;6.10;4.13;;;16.20;82.70;;;;;;5074854;28;20533;-57
2022/05/01 10:42:03;;;;;;;6.50;3.90;;;16.30;79.60;;;;;;5073705;28;20048;-58
2022/05/01 10:44:35;;;;;;;4.88;4.18;;;16.20;79.30;;;;;;5074643;28;20498;-58
2022/05/01 10:47:16;;;;;;;8.80;4.50;;;16.10;77.80;;;;;;5073711;28;20037;-57
2022/05/01 10:49:44;;;;;;;4.97;4.00;;;16.00;76.30;;;;;;5072665;28;20106;-58
2022/05/01 10:52:23;;;;;;;5.07;3.85;;;16.10;77.40;;;;;;5073660;28;20042;-59
2022/05/01 10:54:54;;;;;;;6.38;3.70;;;16.30;77.00;;;;;;5073714;28;20043;-58
2022/05/01 10:57:23;;;;;;;8.23;4.28;;;16.40;75.30;;;;;;5075232;28;20040;-58
2022/05/01 10:59:50;;;;;;;5.15;3.90;;;16.50;74.60;;;;;;5075409;28;20395;-59
2022/05/01 11:02:22;;;;;;;6.00;4.20;;;16.40;74.60;;;;;;5088019;28;20087;-58
2022/05/01 11:04:49;;;;;;;5.85;4.18;;;16.40;74.40;;;;;;5072261;28;20050;-59
2022/05/01 11:07:17;;;;;;;8.60;4.20;;;16.30;73.80;;;;;;5075222;28;20048;-57
2022/05/01 11:09:45;;;;;;;6.43;4.47;;;16.20;73.80;;;;;;5072287;28;21595;-57
2022/05/01 11:12:13;;;;;;;9.55;4.05;;;16.10;74.00;;;;;;5067170;28;20044;-59
2022/05/01 11:14:59;;;;;;;4.95;4.00;;;16.20;74.30;;;;;;5072288;28;20078;-58
2022/05/01 11:17:36;;;;;;;6.50;4.43;;;16.20;73.40;;;;;;5072748;28;20040;-58
2022/05/01 11:20:10;;;;;;;5.35;4.18;;;16.20;72.90;;;;;;5076546;28;20405;-59
2022/05/01 11:22:37;;;;;;;6.57;4.20;;;16.20;73.50;;;;;;5071034;28;20147;-57
2022/05/01 11:25:03;;;;;;;5.85;4.10;;;16.30;73.30;;;;;;5070464;28;20083;-58
2022/05/01 11:27:49;;;;;;;6.57;4.30;;;16.40;71.30;;;;;;5073841;28;20037;-58
2022/05/01 11:30:28;;;;;;;7.20;4.70;;;16.50;71.80;;;;;;5081458;28;20059;-57
2022/05/01 11:33:03;;;;;;;7.70;4.55;;;16.70;72.80;;;;;;5097356;28;20053;-58
2022/05/01 11:35:52;;;;;;;6.82;4.68;;;17.00;72.70;;;;;;5097692;28;20529;-58
2022/05/01 11:38:20;;;;;;;5.35;4.40;;;17.10;71.20;;;;;;5097831;28;20439;-58
2022/05/01 11:40:54;;;;;;;8.85;4.63;;;17.00;71.30;;;;;;5097512;28;20040;-59
2022/05/01 11:43:21;;;;;;;6.05;4.30;;;16.90;70.30;;;;;;5081199;28;20036;-59
2022/05/01 11:45:48;;;;;;;6.55;4.22;;;16.80;71.20;;;;;;5096667;28;20032;-58
2022/05/01 11:48:19;;;;;;;5.40;4.30;;;16.80;72.30;;;;;;5097975;28;20110;-58
2022/05/01 11:50:51;;;;;;;5.13;4.38;;;16.90;71.40;;;;;;5098370;28;20039;-58
2022/05/01 11:53:23;;;;;;;5.00;4.15;;;16.90;70.80;;;;;;5098325;28;20478;-58
2022/05/01 12:04:36;;;;;;;4.55;3.72;;;17.10;68.50;;;;;;5098202;28;20035;-58
2022/05/01 12:07:02;;;;;;;4.97;3.95;;;17.20;67.60;;;;;;5087231;28;20044;-58
2022/05/01 12:09:30;;;;;;;5.22;4.13;;;17.20;67.50;;;;;;5095940;28;20047;-58
2022/05/01 12:11:57;;;;;;;4.55;3.70;;;17.40;67.40;;;;;;5080010;28;20477;-58
2022/05/01 12:14:23;;;;;;;4.70;3.70;;;17.50;67.10;;;;;;5096464;28;20139;-59
2022/05/01 12:16:49;;;;;;;6.07;4.00;;;17.70;67.30;;;;;;5095477;28;20040;-57
2022/05/01 12:19:16;;;;;;;5.95;3.20;;;18.00;66.70;;;;;;5098302;28;20048;-59
2022/05/01 12:21:42;;;;;;;5.53;3.92;;;18.10;65.10;;;;;;5096780;28;20052;-59
2022/05/01 12:24:11;;;;;;;5.28;4.00;;;18.30;64.10;;;;;;5064970;28;20054;-60
2022/05/01 12:26:46;;;;;;;5.00;3.92;;;18.50;63.40;;;;;;5086615;28;20137;-58
2022/05/01 12:29:13;;;;;;;4.53;3.75;;;18.60;61.40;;;;;;5094716;28;20123;-58
2022/05/01 12:32:14;;;;;;;4.25;3.35;;;18.60;62.10;;;;;;5095846;28;20067;-59
2022/05/01 12:34:43;;;;;;;5.35;3.55;;;18.80;63.10;;;;;;5097688;28;20455;-59
2022/05/01 12:37:12;;;;;;;5.97;3.80;;;19.00;63.30;;;;;;5097060;28;20039;-58
2022/05/01 12:39:39;;;;;;;5.82;3.92;;;19.10;62.50;;;;;;5098209;28;20054;-58
2022/05/01 12:45:12;;;;;;;5.25;3.50;;;19.10;61.80;;;;;;5085312;28;20056;-58
2022/05/01 12:47:46;;;;;;;5.07;3.90;;;19.10;61.30;;;;;;5096408;28;20028;-59
2022/05/01 12:50:19;;;;;;;7.97;3.67;;;19.10;61.30;;;;;;5068634;28;20044;-57
2022/05/01 12:52:46;;;;;;;5.35;3.88;;;19.00;62.20;;;;;;5097051;28;20040;-59
2022/05/01 12:55:16;;;;;;;4.38;3.50;;;18.90;61.40;;;;;;5095905;28;20101;-58
2022/05/01 12:57:49;;;;;;;4.43;3.30;;;18.80;61.40;;;;;;5076916;28;20481;-59
2022/05/01 13:00:37;;;;;;;4.53;3.35;;;18.90;62.20;;;;;;5096078;28;20113;-59
2022/05/01 13:03:24;;;;;;;5.60;3.50;;;19.00;62.50;;;;;;5087491;28;20498;-59
2022/05/01 13:06:12;;;;;;;4.32;3.35;;;19.00;62.30;;;;;;5095250;28;20047;-58
2022/05/01 13:08:44;;;;;;;4.85;3.20;;;19.20;62.40;;;;;;5094826;28;20040;-59
2022/05/01 13:11:32;;;;;;;3.42;3.03;;;19.40;61.00;;;;;;5093094;28;20040;-59
2022/05/01 13:13:59;;;;;;;4.90;3.60;;;19.50;58.90;;;;;;5093076;28;20056;-58
2022/05/01 13:16:39;;;;;;;4.20;3.20;;;19.50;60.00;;;;;;5095544;28;20043;-58
2022/05/01 13:19:15;;;;;;;3.30;3.00;;;19.80;60.70;;;;;;5080676;28;20481;-59
2022/05/01 13:21:46;;;;;;;5.95;3.17;;;20.10;59.30;;;;;;5095575;28;20036;-59
2022/05/01 13:24:18;;;;;;;4.03;3.20;;;20.40;58.80;;;;;;5095082;28;20599;-59
2022/05/01 13:26:45;;;;;;;5.47;2.92;;;20.80;57.80;;;;;;5074427;28;20048;-58
2022/05/01 13:29:12;;;;;;;3.33;2.90;;;21.00;57.40;;;;;;5092806;28;20048;-59
2022/05/01 13:31:41;;;;;;;4.55;3.08;;;21.20;57.80;;;;;;5091145;28;20059;-58
2022/05/01 13:34:07;;;;;;;4.72;2.85;;;21.30;58.50;;;;;;5085810;28;20040;-58
2022/05/01 13:36:35;;;;;;;3.38;2.85;;;21.60;58.10;;;;;;5076525;28;20043;-59